Time;durP1;ratioP1;P1;durP2;ratioP2;P2;SDS_P1;SDS_P2;PMS_P1;PMS_P2;Temp;Humidity;BMP_temperature;BMP_pressure;BME280_temperature;BME280_humidity;BME280_pressure;Samples;Min_cycle;Max_cycle;Signal;HPM_P1;HPM_P2
2023/12/29 00:01:55;;;;;;;7.40;5.90;;;20.90;99.90;;;;;;5010997;28;20469;-48
2023/12/29 00:04:21;;;;;;;6.60;5.97;;;20.90;99.90;;;;;;5012443;28;20101;-48
2023/12/29 00:06:47;;;;;;;7.10;6.40;;;20.90;99.90;;;;;;5012506;28;20026;-49
2023/12/29 00:09:14;;;;;;;8.32;7.20;;;20.90;99.90;;;;;;5012242;28;20423;-48
2023/12/29 00:11:40;;;;;;;7.00;5.80;;;20.90;99.90;;;;;;5012461;28;20040;-48
2023/12/29 00:14:05;;;;;;;8.73;6.15;;;20.90;99.90;;;;;;5012290;28;20478;-49
2023/12/29 00:16:31;;;;;;;9.43;6.80;;;20.90;99.90;;;;;;5012234;28;20030;-49
2023/12/29 00:18:57;;;;;;;6.95;5.78;;;20.80;99.90;;;;;;5012257;28;20026;-48
2023/12/29 00:21:23;;;;;;;7.30;5.65;;;20.90;99.90;;;;;;5012246;28;20065;-48
2023/12/29 00:23:48;;;;;;;7.28;5.93;;;20.80;99.90;;;;;;5012007;28;20489;-48
2023/12/29 00:26:18;;;;;;;6.65;5.95;;;20.80;99.90;;;;;;5010787;28;20390;-48
2023/12/29 00:28:44;;;;;;;7.57;6.05;;;20.80;99.90;;;;;;5012153;28;20030;-48
2023/12/29 00:31:15;;;;;;;7.22;6.28;;;20.80;99.90;;;;;;5012381;28;20018;-48
2023/12/29 00:33:42;;;;;;;6.47;5.88;;;20.80;99.90;;;;;;5012326;28;20037;-48
2023/12/29 00:36:07;;;;;;;8.63;7.15;;;20.80;99.90;;;;;;5012151;28;20105;-48
2023/12/29 00:38:34;;;;;;;7.13;5.32;;;20.80;99.90;;;;;;5012054;28;20286;-48
2023/12/29 00:40:59;;;;;;;6.28;5.63;;;20.80;99.90;;;;;;5012032;28;20026;-49
2023/12/29 00:43:25;;;;;;;6.97;5.68;;;20.80;99.90;;;;;;5012043;28;20386;-48
2023/12/29 00:45:51;;;;;;;7.65;6.28;;;20.70;99.90;;;;;;5012169;28;20025;-48
2023/12/29 00:48:17;;;;;;;6.82;6.13;;;20.70;99.90;;;;;;5011875;28;20079;-48
2023/12/29 00:50:43;;;;;;;10.18;5.88;;;20.70;99.90;;;;;;5012206;28;20072;-48
2023/12/29 00:53:08;;;;;;;7.25;6.20;;;20.70;99.90;;;;;;5011909;28;20021;-48
2023/12/29 00:55:34;;;;;;;7.35;6.13;;;20.70;99.90;;;;;;5011897;28;20029;-48
2023/12/29 00:58:00;;;;;;;7.45;6.05;;;20.70;99.90;;;;;;5011936;28;20036;-48
2023/12/29 01:00:25;;;;;;;7.30;5.93;;;20.70;99.90;;;;;;5012442;28;20188;-49
2023/12/29 01:02:51;;;;;;;7.72;6.47;;;20.70;99.90;;;;;;5013641;28;20057;-48
2023/12/29 01:05:17;;;;;;;7.30;6.53;;;20.70;99.90;;;;;;5015560;28;20489;-49
2023/12/29 01:07:43;;;;;;;6.70;5.82;;;20.70;99.90;;;;;;5015683;28;20033;-49
2023/12/29 01:10:09;;;;;;;6.93;5.45;;;20.70;99.90;;;;;;5015352;28;20390;-49
2023/12/29 01:12:35;;;;;;;6.22;5.45;;;20.70;99.90;;;;;;5015339;28;20351;-48
2023/12/29 01:15:00;;;;;;;6.90;6.20;;;20.70;99.90;;;;;;5014026;28;20028;-49
2023/12/29 01:17:28;;;;;;;7.15;6.45;;;20.70;99.90;;;;;;5015258;28;20498;-49
2023/12/29 01:19:54;;;;;;;6.78;6.05;;;20.70;99.90;;;;;;5015274;28;20101;-48
2023/12/29 01:22:20;;;;;;;7.75;6.55;;;20.70;99.90;;;;;;5015135;28;20034;-49
2023/12/29 01:24:46;;;;;;;7.18;6.35;;;20.70;99.90;;;;;;5015309;28;20022;-48
2023/12/29 01:27:12;;;;;;;6.90;5.90;;;20.60;99.90;;;;;;5015259;28;20026;-49
2023/12/29 01:29:38;;;;;;;8.57;6.63;;;20.60;99.90;;;;;;5014885;28;20137;-49
2023/12/29 01:32:06;;;;;;;6.63;5.90;;;20.60;99.90;;;;;;5014876;28;20022;-49
2023/12/29 01:34:33;;;;;;;7.78;6.28;;;20.60;99.90;;;;;;5015015;28;20026;-49
2023/12/29 01:37:02;;;;;;;9.07;5.67;;;20.60;99.90;;;;;;5014955;28;20042;-49
2023/12/29 01:39:27;;;;;;;8.20;6.60;;;20.60;99.90;;;;;;5014829;28;20346;-49
2023/12/29 01:41:58;;;;;;;7.35;6.43;;;20.60;99.90;;;;;;5014923;28;20105;-48
2023/12/29 01:44:24;;;;;;;8.07;6.20;;;20.60;99.90;;;;;;5013461;28;20109;-49
2023/12/29 01:46:52;;;;;;;6.40;5.80;;;20.60;99.90;;;;;;5014709;28;20100;-49
2023/12/29 01:49:19;;;;;;;7.00;6.18;;;20.60;99.90;;;;;;5014909;28;20413;-49
2023/12/29 01:51:58;;;;;;;7.55;6.43;;;20.60;99.90;;;;;;5014828;28;20022;-49
2023/12/29 01:54:27;;;;;;;6.43;5.65;;;20.60;99.90;;;;;;5014461;28;20034;-49
2023/12/29 01:56:56;;;;;;;7.95;6.18;;;20.60;99.90;;;;;;5014526;28;20081;-49
2023/12/29 01:59:24;;;;;;;7.35;5.80;;;20.60;99.90;;;;;;5014516;28;20026;-49
2023/12/29 02:01:50;;;;;;;7.35;6.07;;;20.60;99.90;;;;;;5014861;28;20129;-48
2023/12/29 02:04:17;;;;;;;6.78;5.32;;;20.60;99.90;;;;;;5013454;28;20053;-49
2023/12/29 02:06:43;;;;;;;7.05;6.00;;;20.60;99.90;;;;;;5014587;28;20492;-49
2023/12/29 02:09:09;;;;;;;6.97;6.10;;;20.60;99.90;;;;;;5014181;28;20044;-49
2023/12/29 02:11:35;;;;;;;6.82;5.75;;;20.60;99.90;;;;;;5014206;28;20072;-48
2023/12/29 02:14:02;;;;;;;6.60;5.85;;;20.50;99.90;;;;;;5014248;28;20417;-49
2023/12/29 02:16:50;;;;;;;7.32;5.68;;;20.50;99.90;;;;;;5013018;28;20474;-50
2023/12/29 02:19:34;;;;;;;6.35;5.75;;;20.50;99.90;;;;;;5014309;28;20029;-48
2023/12/29 02:22:00;;;;;;;7.30;6.55;;;20.50;99.90;;;;;;5013932;28;20073;-48
2023/12/29 02:24:26;;;;;;;7.55;5.53;;;20.50;99.90;;;;;;5014191;28;20026;-49
2023/12/29 02:27:02;;;;;;;8.00;6.45;;;20.50;99.90;;;;;;5012999;28;20108;-49
2023/12/29 02:29:31;;;;;;;7.35;5.85;;;20.50;99.90;;;;;;5013888;28;20092;-48
2023/12/29 02:31:59;;;;;;;9.50;5.90;;;20.50;99.90;;;;;;5013874;28;20378;-49
2023/12/29 02:34:27;;;;;;;7.05;6.15;;;20.50;99.90;;;;;;5013782;28;20029;-49
2023/12/29 02:36:54;;;;;;;6.95;5.78;;;20.50;99.90;;;;;;5013812;28;20125;-49
2023/12/29 02:39:20;;;;;;;8.05;6.13;;;20.50;99.90;;;;;;5013909;28;20033;-49
2023/12/29 02:41:46;;;;;;;6.93;5.68;;;20.50;99.90;;;;;;5014020;28;20026;-49
2023/12/29 02:44:12;;;;;;;7.43;5.63;;;20.40;99.90;;;;;;5012516;28;20030;-48
2023/12/29 02:46:37;;;;;;;6.22;5.63;;;20.40;99.90;;;;;;5013674;28;20036;-48
2023/12/29 02:49:03;;;;;;;6.40;5.80;;;20.40;99.90;;;;;;5013516;28;20030;-48
2023/12/29 02:51:29;;;;;;;7.78;6.10;;;20.40;99.90;;;;;;5013625;28;20084;-48
2023/12/29 02:53:55;;;;;;;7.07;5.68;;;20.40;99.90;;;;;;5012350;28;20427;-49
2023/12/29 02:56:21;;;;;;;11.43;6.32;;;20.40;99.90;;;;;;5013755;28;20474;-49
2023/12/29 02:58:48;;;;;;;5.95;5.35;;;20.40;99.90;;;;;;5013972;28;20026;-49
2023/12/29 03:01:14;;;;;;;6.85;5.68;;;20.40;99.90;;;;;;5025763;23;20050;-51
2023/12/29 03:03:39;;;;;;;7.13;6.15;;;20.40;99.90;;;;;;5013408;28;20025;-51
2023/12/29 03:06:06;;;;;;;6.35;5.70;;;20.40;99.90;;;;;;5013637;28;20018;-51
2023/12/29 03:08:32;;;;;;;6.75;6.03;;;20.40;99.90;;;;;;5012109;28;20058;-51
2023/12/29 03:10:58;;;;;;;8.13;5.57;;;20.40;99.90;;;;;;5012124;28;20076;-51
2023/12/29 03:13:26;;;;;;;6.85;5.55;;;20.40;99.90;;;;;;5013102;28;20486;-51
2023/12/29 03:15:51;;;;;;;6.57;5.70;;;20.30;99.90;;;;;;5013150;28;20069;-51
2023/12/29 03:18:17;;;;;;;6.60;5.60;;;20.30;99.90;;;;;;5013100;28;20014;-51
2023/12/29 03:20:43;;;;;;;6.38;5.63;;;20.30;99.90;;;;;;5013294;28;20500;-52
2023/12/29 03:23:09;;;;;;;5.90;5.25;;;20.30;99.90;;;;;;5013141;28;20056;-51
2023/12/29 03:25:35;;;;;;;6.35;5.28;;;20.30;99.90;;;;;;5012960;28;20088;-51
2023/12/29 03:28:00;;;;;;;6.15;5.57;;;20.30;99.90;;;;;;5013091;28;20021;-51
2023/12/29 03:30:26;;;;;;;6.30;5.70;;;20.30;99.90;;;;;;5012871;28;20034;-51
2023/12/29 03:32:52;;;;;;;7.00;5.65;;;20.30;99.90;;;;;;5012852;28;20541;-51
2023/12/29 03:35:18;;;;;;;6.45;5.78;;;20.30;99.90;;;;;;5013082;28;20034;-52
2023/12/29 03:37:43;;;;;;;6.25;5.65;;;20.30;99.90;;;;;;5012973;28;20013;-50
2023/12/29 03:40:09;;;;;;;7.65;6.10;;;20.30;99.90;;;;;;5013111;28;20168;-51
2023/12/29 03:42:35;;;;;;;7.25;5.35;;;20.30;99.90;;;;;;5011930;28;20014;-51
2023/12/29 03:45:01;;;;;;;7.97;5.30;;;20.30;99.90;;;;;;5012722;28;20052;-51
2023/12/29 03:47:27;;;;;;;6.75;5.90;;;20.30;99.90;;;;;;5012779;28;20018;-51
2023/12/29 03:49:53;;;;;;;6.03;5.40;;;20.20;99.90;;;;;;5012622;28;20030;-50
2023/12/29 03:52:19;;;;;;;6.15;5.55;;;20.30;99.90;;;;;;5012806;28;20032;-51
2023/12/29 03:54:45;;;;;;;5.80;5.22;;;20.20;99.90;;;;;;5012734;28;20101;-51
2023/12/29 03:57:11;;;;;;;6.88;6.00;;;20.20;99.90;;;;;;5012844;28;20026;-53
2023/12/29 03:59:37;;;;;;;5.68;5.07;;;20.20;99.90;;;;;;5012838;28;20029;-51
2023/12/29 04:02:03;;;;;;;6.30;5.43;;;20.20;99.90;;;;;;5013006;28;20049;-51
2023/12/29 04:04:29;;;;;;;6.65;5.90;;;20.20;99.90;;;;;;5011246;28;20400;-51
2023/12/29 04:06:55;;;;;;;6.35;5.30;;;20.20;99.90;;;;;;5012490;28;20018;-51
2023/12/29 04:09:21;;;;;;;5.97;5.38;;;20.20;99.90;;;;;;5012386;28;20042;-51
2023/12/29 04:11:47;;;;;;;5.95;4.90;;;20.20;99.90;;;;;;5012526;28;20033;-51
2023/12/29 04:14:13;;;;;;;5.50;4.90;;;20.20;99.90;;;;;;5012500;28;20022;-51
2023/12/29 04:16:39;;;;;;;6.68;5.40;;;20.20;99.90;;;;;;5012695;28;20087;-52
2023/12/29 04:19:05;;;;;;;6.82;5.65;;;20.20;99.90;;;;;;5012379;28;20390;-51
2023/12/29 04:21:31;;;;;;;5.50;5.00;;;20.20;99.90;;;;;;5012305;28;20025;-52
2023/12/29 04:23:56;;;;;;;6.00;5.35;;;20.20;99.90;;;;;;5012384;28;20033;-51
2023/12/29 04:26:22;;;;;;;5.43;4.93;;;20.20;99.90;;;;;;5012356;28;20402;-51
2023/12/29 04:28:48;;;;;;;5.88;5.20;;;20.20;99.90;;;;;;5012298;28;20489;-51
2023/12/29 04:31:14;;;;;;;7.05;5.50;;;20.20;99.90;;;;;;5012385;28;20045;-52
2023/12/29 04:33:39;;;;;;;6.45;5.18;;;20.20;99.90;;;;;;5012584;28;20021;-52
2023/12/29 04:36:05;;;;;;;6.57;5.13;;;20.20;99.90;;;;;;5012312;28;20109;-51
2023/12/29 04:38:31;;;;;;;7.25;4.70;;;20.10;99.90;;;;;;5015382;28;20068;-50
2023/12/29 04:40:57;;;;;;;6.25;5.53;;;20.10;99.90;;;;;;5016083;28;20108;-51
2023/12/29 04:43:23;;;;;;;5.85;5.15;;;20.10;99.90;;;;;;5015993;28;20024;-51
2023/12/29 04:45:48;;;;;;;7.60;5.28;;;20.10;99.90;;;;;;5016062;28;20030;-51
2023/12/29 04:48:14;;;;;;;6.72;5.50;;;20.10;99.90;;;;;;5015948;28;20022;-52
2023/12/29 04:50:40;;;;;;;6.03;4.88;;;20.10;99.90;;;;;;5014702;28;20046;-50
2023/12/29 04:53:06;;;;;;;5.30;4.80;;;20.10;99.90;;;;;;5015896;28;20029;-51
2023/12/29 04:55:32;;;;;;;5.72;5.18;;;20.10;99.90;;;;;;5015832;28;20036;-52
2023/12/29 04:57:57;;;;;;;6.10;4.72;;;20.10;99.90;;;;;;5015752;28;20023;-52
2023/12/29 05:00:23;;;;;;;5.75;5.15;;;20.10;99.90;;;;;;5015572;28;20032;-50
2023/12/29 05:02:49;;;;;;;6.18;5.55;;;20.10;99.90;;;;;;5015512;28;20046;-50
2023/12/29 05:05:15;;;;;;;5.80;4.78;;;20.10;99.90;;;;;;5015716;28;20026;-50
2023/12/29 05:07:41;;;;;;;5.18;4.60;;;20.00;99.90;;;;;;5015937;28;20022;-50
2023/12/29 05:10:07;;;;;;;6.70;4.85;;;20.10;99.90;;;;;;5015423;28;20504;-51
2023/12/29 05:12:33;;;;;;;6.30;5.07;;;20.00;99.90;;;;;;5015498;28;20022;-51
2023/12/29 05:14:59;;;;;;;7.18;5.05;;;20.10;99.90;;;;;;5015518;28;20036;-51
2023/12/29 05:17:24;;;;;;;5.38;4.65;;;20.10;99.90;;;;;;5015481;28;20073;-52
2023/12/29 05:19:50;;;;;;;7.47;5.15;;;20.00;99.90;;;;;;5015481;28;20018;-52
2023/12/29 05:22:17;;;;;;;6.05;4.65;;;20.00;99.90;;;;;;5015454;28;20033;-52
2023/12/29 05:24:45;;;;;;;7.60;4.60;;;20.00;99.90;;;;;;5015575;28;20022;-52
2023/12/29 05:27:11;;;;;;;5.45;4.95;;;20.00;99.90;;;;;;5014111;28;20274;-52
2023/12/29 05:29:37;;;;;;;5.57;4.97;;;20.00;99.90;;;;;;5015085;28;20112;-53
2023/12/29 05:32:03;;;;;;;5.20;4.68;;;20.00;99.90;;;;;;5015144;28;20427;-52
2023/12/29 05:34:29;;;;;;;5.53;4.15;;;20.00;99.90;;;;;;5015083;28;20025;-52
2023/12/29 05:36:55;;;;;;;6.75;4.85;;;20.00;99.90;;;;;;5013915;28;20432;-52
2023/12/29 05:39:21;;;;;;;5.90;5.28;;;20.00;99.90;;;;;;5015037;28;20026;-52
2023/12/29 05:41:46;;;;;;;5.60;4.70;;;20.00;99.90;;;;;;5014862;28;20022;-52
2023/12/29 05:44:12;;;;;;;5.22;4.22;;;19.90;99.90;;;;;;5015186;28;20030;-51
2023/12/29 05:46:38;;;;;;;6.75;4.30;;;19.90;99.90;;;;;;5014768;28;20106;-52
2023/12/29 05:49:04;;;;;;;5.78;4.22;;;19.90;99.90;;;;;;5014375;28;20045;-52
2023/12/29 05:51:29;;;;;;;4.70;4.30;;;19.90;99.90;;;;;;5014780;28;20487;-51
2023/12/29 05:53:55;;;;;;;5.10;4.50;;;19.90;99.90;;;;;;5014849;28;20353;-52
2023/12/29 05:56:21;;;;;;;5.85;4.50;;;19.90;99.90;;;;;;5014622;28;20097;-52
2023/12/29 05:58:47;;;;;;;5.05;4.60;;;19.90;99.90;;;;;;5013687;28;20473;-52
2023/12/29 06:01:12;;;;;;;4.75;4.25;;;19.90;99.90;;;;;;5014565;28;20057;-51
2023/12/29 06:03:38;;;;;;;5.63;4.50;;;19.90;99.90;;;;;;5014514;28;20520;-52
2023/12/29 06:06:04;;;;;;;7.68;5.32;;;19.90;99.90;;;;;;5014466;28;20378;-52
2023/12/29 06:08:30;;;;;;;8.57;4.68;;;19.90;99.90;;;;;;5014593;28;20044;-52
2023/12/29 06:10:56;;;;;;;5.43;3.92;;;19.80;99.90;;;;;;5014369;28;20557;-52
2023/12/29 06:13:22;;;;;;;7.50;4.97;;;19.90;99.90;;;;;;5014457;28;20030;-52
2023/12/29 06:15:48;;;;;;;5.43;4.25;;;19.90;99.90;;;;;;5014607;28;20030;-53
2023/12/29 06:18:13;;;;;;;5.18;4.65;;;19.90;99.90;;;;;;5014549;28;20072;-53
2023/12/29 06:20:39;;;;;;;6.72;5.15;;;19.90;99.90;;;;;;5014124;28;20049;-52
2023/12/29 06:23:05;;;;;;;4.97;4.00;;;19.90;99.90;;;;;;5014222;28;20053;-52
2023/12/29 06:25:32;;;;;;;4.90;3.80;;;19.80;99.90;;;;;;5013920;28;20026;-52
2023/12/29 06:27:57;;;;;;;6.03;4.10;;;19.80;99.90;;;;;;5014108;28;20026;-53
2023/12/29 06:30:23;;;;;;;5.88;4.75;;;19.90;99.90;;;;;;5013903;28;20030;-53
2023/12/29 06:32:49;;;;;;;5.90;4.53;;;19.80;99.90;;;;;;5014011;28;20489;-53
2023/12/29 06:35:15;;;;;;;4.88;4.38;;;19.90;99.90;;;;;;5012876;28;20108;-53
2023/12/29 06:37:41;;;;;;;5.68;4.25;;;19.80;99.90;;;;;;5013733;28;20026;-52
2023/12/29 06:40:07;;;;;;;4.93;4.22;;;19.80;99.90;;;;;;5013819;28;20058;-53
2023/12/29 06:42:33;;;;;;;6.32;4.35;;;19.80;99.90;;;;;;5013811;28;20377;-52
2023/12/29 06:44:59;;;;;;;5.40;4.85;;;19.80;99.90;;;;;;5013803;28;20030;-52
2023/12/29 06:47:24;;;;;;;5.15;4.43;;;19.80;99.90;;;;;;5013707;28;20113;-50
2023/12/29 06:49:50;;;;;;;7.25;4.85;;;19.80;99.90;;;;;;5013500;28;20417;-50
2023/12/29 06:52:16;;;;;;;4.53;4.13;;;19.80;99.90;;;;;;5013914;28;20097;-51
2023/12/29 06:54:42;;;;;;;5.85;4.55;;;19.80;99.90;;;;;;5013464;28;20022;-50
2023/12/29 06:57:08;;;;;;;6.13;4.20;;;19.80;99.90;;;;;;5013408;28;20084;-50
2023/12/29 06:59:34;;;;;;;4.57;4.13;;;19.80;99.90;;;;;;5012736;28;20029;-50
2023/12/29 07:02:00;;;;;;;5.28;4.63;;;19.80;99.90;;;;;;5013338;28;20375;-53
2023/12/29 07:04:26;;;;;;;5.90;4.28;;;19.80;99.90;;;;;;5013433;28;20033;-52
2023/12/29 07:06:51;;;;;;;4.78;4.28;;;19.80;99.90;;;;;;5013340;28;20053;-52
2023/12/29 07:09:17;;;;;;;5.68;4.43;;;19.80;99.90;;;;;;5012215;28;20053;-52
2023/12/29 07:11:48;;;;;;;5.45;4.60;;;19.80;99.90;;;;;;5013183;28;20433;-53
2023/12/29 07:14:14;;;;;;;5.57;4.70;;;19.80;99.90;;;;;;5013181;28;20025;-52
2023/12/29 07:16:40;;;;;;;7.60;4.70;;;19.80;99.90;;;;;;5013096;28;20501;-52
2023/12/29 07:19:06;;;;;;;5.88;4.75;;;19.80;99.90;;;;;;5013260;28;20105;-53
2023/12/29 07:21:31;;;;;;;4.60;4.20;;;19.80;99.90;;;;;;5013150;28;20025;-52
2023/12/29 07:23:57;;;;;;;4.65;3.97;;;19.80;99.90;;;;;;5013034;28;20034;-52
2023/12/29 07:26:23;;;;;;;5.57;4.65;;;19.80;99.90;;;;;;5013067;28;20025;-53
2023/12/29 07:28:53;;;;;;;6.22;4.32;;;19.80;99.90;;;;;;5013319;28;20473;-53
2023/12/29 07:31:20;;;;;;;5.63;4.40;;;19.80;99.90;;;;;;5013252;28;20033;-53
2023/12/29 07:33:46;;;;;;;5.97;5.18;;;19.80;99.90;;;;;;5012760;28;20076;-52
2023/12/29 07:36:12;;;;;;;5.80;4.43;;;19.80;99.90;;;;;;5012786;28;20034;-52
2023/12/29 07:38:37;;;;;;;4.78;4.28;;;19.80;99.90;;;;;;5011419;28;20018;-53
2023/12/29 07:41:03;;;;;;;4.90;4.40;;;19.80;99.90;;;;;;5011450;28;20096;-52
2023/12/29 07:43:29;;;;;;;4.47;4.07;;;19.80;99.90;;;;;;5012680;28;20065;-53
2023/12/29 07:45:55;;;;;;;4.35;3.95;;;19.80;99.90;;;;;;5011471;28;20026;-53
2023/12/29 07:48:21;;;;;;;4.97;4.05;;;19.80;99.90;;;;;;5012814;28;20022;-53
2023/12/29 07:50:46;;;;;;;7.32;4.93;;;19.80;99.90;;;;;;5012409;28;20104;-53
2023/12/29 07:53:12;;;;;;;6.55;4.88;;;19.70;99.90;;;;;;5012601;28;20025;-53
2023/12/29 07:55:41;;;;;;;5.07;4.28;;;19.80;99.90;;;;;;5012669;28;20097;-53
2023/12/29 07:58:09;;;;;;;7.18;4.93;;;19.80;99.90;;;;;;5012489;28;20042;-52
2023/12/29 08:00:35;;;;;;;5.13;4.10;;;19.80;99.90;;;;;;5012406;28;20093;-52
2023/12/29 08:03:01;;;;;;;4.95;4.45;;;19.70;99.90;;;;;;5011183;28;20026;-52
2023/12/29 08:05:27;;;;;;;4.68;4.13;;;19.80;99.90;;;;;;5012444;28;20041;-53
2023/12/29 08:07:54;;;;;;;6.28;4.85;;;19.70;99.90;;;;;;5012677;28;20026;-52
2023/12/29 08:10:20;;;;;;;5.22;4.72;;;19.70;99.90;;;;;;5012647;28;20030;-52
2023/12/29 08:12:46;;;;;;;6.25;4.85;;;19.70;99.90;;;;;;5018722;28;20088;-52
2023/12/29 08:15:12;;;;;;;5.25;4.15;;;19.80;99.90;;;;;;5018989;28;20036;-51
2023/12/29 08:17:38;;;;;;;5.10;3.97;;;19.80;99.90;;;;;;5018826;28;20022;-51
2023/12/29 08:20:04;;;;;;;5.72;4.70;;;19.70;99.90;;;;;;5018974;28;20440;-51
2023/12/29 08:22:32;;;;;;;4.93;4.43;;;19.80;99.90;;;;;;5017378;28;20057;-52
2023/12/29 08:24:58;;;;;;;7.63;5.15;;;19.80;99.90;;;;;;5018918;28;20105;-52
2023/12/29 08:27:27;;;;;;;5.60;4.97;;;19.70;99.90;;;;;;5019217;28;20029;-52
2023/12/29 08:29:53;;;;;;;5.72;5.07;;;19.80;99.90;;;;;;5018800;28;20037;-51
2023/12/29 08:32:20;;;;;;;6.20;4.65;;;19.80;99.90;;;;;;5018746;28;20434;-51
2023/12/29 08:34:45;;;;;;;6.50;5.10;;;19.70;99.90;;;;;;5018778;28;20100;-52
2023/12/29 08:37:12;;;;;;;4.65;4.25;;;19.80;99.90;;;;;;5018502;28;20492;-52
2023/12/29 08:39:37;;;;;;;7.63;5.20;;;19.80;99.90;;;;;;5018759;28;20061;-53
2023/12/29 08:42:03;;;;;;;5.55;4.60;;;19.80;99.90;;;;;;5018598;28;20057;-52
2023/12/29 08:44:29;;;;;;;5.32;4.72;;;19.80;99.90;;;;;;5018769;28;20034;-51
2023/12/29 08:46:55;;;;;;;7.25;5.25;;;19.80;99.90;;;;;;5018864;28;20037;-52
2023/12/29 08:49:21;;;;;;;6.30;5.20;;;19.80;99.90;;;;;;5017301;28;20501;-51
2023/12/29 08:51:47;;;;;;;6.75;4.85;;;19.80;99.90;;;;;;5018660;28;20029;-52
2023/12/29 08:54:13;;;;;;;6.60;5.22;;;19.80;99.90;;;;;;5018614;28;20021;-52
2023/12/29 08:56:39;;;;;;;5.85;5.25;;;19.80;99.90;;;;;;5018506;28;20490;-52
2023/12/29 08:59:04;;;;;;;6.82;6.00;;;19.80;99.90;;;;;;5018554;28;20500;-52
2023/12/29 09:01:30;;;;;;;6.80;5.35;;;19.80;99.90;;;;;;5018378;28;20397;-52
2023/12/29 09:03:56;;;;;;;7.18;4.97;;;19.80;99.90;;;;;;5017320;28;20022;-53
2023/12/29 09:06:22;;;;;;;6.72;5.13;;;19.80;99.90;;;;;;5018451;28;20540;-53
2023/12/29 09:08:48;;;;;;;7.65;5.47;;;19.80;99.90;;;;;;5018292;28;20044;-53
2023/12/29 09:11:13;;;;;;;5.88;5.28;;;19.80;99.90;;;;;;5018331;28;20470;-53
2023/12/29 09:13:39;;;;;;;6.82;4.97;;;19.80;99.90;;;;;;5016990;28;20105;-53
2023/12/29 09:16:06;;;;;;;5.90;5.30;;;19.80;99.90;;;;;;5018158;28;20029;-53
2023/12/29 09:18:32;;;;;;;5.87;5.23;;;19.80;99.90;;;;;;5018178;28;20473;-53
2023/12/29 09:20:58;;;;;;;7.55;4.55;;;19.80;99.90;;;;;;5018368;28;20024;-53
2023/12/29 09:23:24;;;;;;;5.47;4.82;;;19.90;99.90;;;;;;5015923;28;20482;-53
2023/12/29 09:25:49;;;;;;;4.97;4.47;;;19.90;99.90;;;;;;5015202;28;20109;-53
2023/12/29 09:28:15;;;;;;;4.82;4.13;;;19.90;99.90;;;;;;5015142;28;20025;-53
2023/12/29 09:30:41;;;;;;;7.57;4.88;;;19.90;99.90;;;;;;5014894;28;20034;-54
2023/12/29 09:33:07;;;;;;;4.82;4.15;;;19.90;99.90;;;;;;5015015;28;20022;-53
2023/12/29 09:35:33;;;;;;;5.68;5.07;;;19.90;99.90;;;;;;5015147;28;20386;-53
2023/12/29 09:37:59;;;;;;;6.80;4.35;;;19.90;99.90;;;;;;5015158;28;20026;-51
2023/12/29 09:40:25;;;;;;;4.25;3.83;;;19.90;99.90;;;;;;5015145;28;20473;-50
2023/12/29 09:42:52;;;;;;;4.90;4.32;;;20.00;99.90;;;;;;5014814;28;20130;-52
2023/12/29 09:45:24;;;;;;;6.10;3.90;;;20.00;99.90;;;;;;5014758;28;20478;-50
2023/12/29 09:47:52;;;;;;;4.43;4.03;;;20.00;99.90;;;;;;5014533;28;20255;-51
2023/12/29 09:50:19;;;;;;;4.30;3.72;;;20.00;99.90;;;;;;5014653;28;20038;-52
2023/12/29 09:52:49;;;;;;;4.68;4.20;;;20.00;99.90;;;;;;5013440;28;20164;-53
2023/12/29 09:55:15;;;;;;;6.43;4.13;;;20.10;99.90;;;;;;5014631;28;20470;-54
2023/12/29 09:57:42;;;;;;;4.78;3.83;;;20.10;99.90;;;;;;5014486;28;20036;-51
2023/12/29 10:00:11;;;;;;;5.28;4.05;;;20.10;99.90;;;;;;5014655;28;20105;-53
2023/12/29 10:02:38;;;;;;;16.42;5.45;;;20.20;99.90;;;;;;5014499;28;20460;-54
2023/12/29 10:05:05;;;;;;;4.78;4.38;;;20.20;99.90;;;;;;5014467;28;20438;-53
2023/12/29 10:07:36;;;;;;;6.43;5.45;;;20.30;99.90;;;;;;5014538;28;20032;-53
2023/12/29 10:10:04;;;;;;;5.82;4.97;;;20.20;99.90;;;;;;5014170;28;20042;-54
2023/12/29 10:12:31;;;;;;;6.18;4.47;;;20.30;99.90;;;;;;5014315;28;20026;-55
2023/12/29 10:15:10;;;;;;;6.35;5.00;;;20.30;99.90;;;;;;5014491;28;20025;-54
2023/12/29 10:17:47;;;;;;;6.22;4.97;;;20.30;99.90;;;;;;5014288;28;20022;-54
2023/12/29 10:20:27;;;;;;;5.65;4.75;;;20.40;99.90;;;;;;5014256;28;20378;-54
2023/12/29 10:23:16;;;;;;;5.30;4.65;;;20.40;99.90;;;;;;5014146;28;20093;-53
2023/12/29 10:25:42;;;;;;;5.70;5.10;;;20.50;99.90;;;;;;5013995;28;20381;-53
2023/12/29 10:28:10;;;;;;;5.35;4.80;;;20.50;99.90;;;;;;5014003;28;20099;-53
2023/12/29 10:30:37;;;;;;;6.88;5.00;;;20.50;99.90;;;;;;5013924;28;20132;-53
2023/12/29 10:33:04;;;;;;;6.57;5.32;;;20.60;99.90;;;;;;5013935;28;20042;-53
2023/12/29 10:35:31;;;;;;;5.95;4.80;;;20.60;99.90;;;;;;5011630;28;20549;-54
2023/12/29 10:38:13;;;;;;;10.13;5.20;;;20.60;99.90;;;;;;5014092;28;20022;-53
2023/12/29 10:40:39;;;;;;;6.50;4.63;;;20.60;99.90;;;;;;5013680;28;20049;-54
2023/12/29 10:43:07;;;;;;;8.18;5.00;;;20.70;99.90;;;;;;5013928;28;20018;-53
2023/12/29 10:45:34;;;;;;;7.35;5.18;;;20.70;99.90;;;;;;5013677;28;20054;-53
2023/12/29 10:48:00;;;;;;;6.43;5.60;;;20.70;99.90;;;;;;5013729;28;20104;-53
2023/12/29 10:50:27;;;;;;;9.88;6.30;;;20.80;99.90;;;;;;5013481;28;20034;-53
2023/12/29 10:53:12;;;;;;;9.93;6.80;;;20.80;99.90;;;;;;5013532;28;20022;-53
2023/12/29 10:55:38;;;;;;;10.45;8.05;;;20.80;99.90;;;;;;5013427;28;20393;-53
2023/12/29 10:58:05;;;;;;;11.82;8.35;;;20.80;99.90;;;;;;5013434;28;20026;-55
2023/12/29 11:00:32;;;;;;;13.85;8.60;;;20.80;99.90;;;;;;5013434;28;20038;-54
2023/12/29 11:02:59;;;;;;;12.88;8.88;;;20.80;99.90;;;;;;5013445;28;20478;-53
2023/12/29 11:05:26;;;;;;;13.43;8.98;;;20.80;99.90;;;;;;5013273;28;20033;-53
2023/12/29 11:07:54;;;;;;;12.80;9.63;;;20.80;99.90;;;;;;5013375;28;20030;-54
2023/12/29 11:10:21;;;;;;;11.25;9.40;;;20.80;99.90;;;;;;5013087;28;20287;-53
2023/12/29 11:12:48;;;;;;;12.95;9.32;;;20.80;99.90;;;;;;5013131;28;20021;-54
2023/12/29 11:15:15;;;;;;;16.27;10.27;;;20.80;99.90;;;;;;5012938;28;20052;-54
2023/12/29 11:17:49;;;;;;;15.63;11.68;;;20.80;99.90;;;;;;5013031;28;20486;-54
2023/12/29 11:20:16;;;;;;;16.52;11.70;;;20.80;99.90;;;;;;5012974;28;20033;-54
2023/12/29 11:22:43;;;;;;;15.68;11.02;;;20.80;99.90;;;;;;5011783;28;20045;-54
2023/12/29 11:25:10;;;;;;;15.75;11.85;;;20.80;99.90;;;;;;5012866;28;20116;-54
2023/12/29 11:27:36;;;;;;;18.98;12.38;;;20.80;99.90;;;;;;5012790;28;20148;-54
2023/12/29 11:30:04;;;;;;;18.05;11.85;;;20.80;99.90;;;;;;5013066;28;20121;-54
2023/12/29 11:32:46;;;;;;;17.30;12.00;;;20.80;99.90;;;;;;5012869;28;20386;-54
2023/12/29 11:35:18;;;;;;;18.67;12.32;;;20.80;99.90;;;;;;5012836;28;20076;-53
2023/12/29 11:38:10;;;;;;;14.95;11.93;;;20.80;99.90;;;;;;5012807;28;20018;-53
2023/12/29 11:40:42;;;;;;;17.38;12.30;;;20.80;99.90;;;;;;5012668;28;20026;-52
2023/12/29 11:43:14;;;;;;;15.70;12.10;;;20.80;99.90;;;;;;5012738;28;20094;-53
2023/12/29 11:45:40;;;;;;;15.40;13.30;;;20.80;99.90;;;;;;5012322;28;20093;-50
2023/12/29 11:48:06;;;;;;;19.73;12.82;;;20.80;99.90;;;;;;5012621;28;20025;-53
2023/12/29 11:50:33;;;;;;;18.42;12.98;;;20.80;99.90;;;;;;5012577;28;20151;-53
2023/12/29 11:53:00;;;;;;;19.10;13.10;;;20.80;99.90;;;;;;5012591;28;20079;-54
2023/12/29 11:55:37;;;;;;;16.17;12.95;;;20.80;99.90;;;;;;5012581;28;20040;-53
2023/12/29 11:58:22;;;;;;;16.70;12.18;;;20.80;99.90;;;;;;5012728;28;20022;-53
2023/12/29 12:00:48;;;;;;;16.85;12.75;;;20.80;99.90;;;;;;5012231;28;20096;-53
2023/12/29 12:03:25;;;;;;;17.67;12.98;;;20.80;99.90;;;;;;5012472;28;20143;-55
2023/12/29 12:05:51;;;;;;;16.77;12.80;;;20.80;99.90;;;;;;5012351;28;20029;-54
2023/12/29 12:08:28;;;;;;;16.83;12.98;;;20.90;99.90;;;;;;5012378;28;20025;-54
2023/12/29 12:10:54;;;;;;;16.58;12.70;;;20.90;99.90;;;;;;5012387;28;20033;-55
2023/12/29 12:13:44;;;;;;;14.40;11.48;;;20.90;99.90;;;;;;5012106;28;20026;-54
2023/12/29 12:16:44;;;;;;;17.30;12.88;;;20.90;99.90;;;;;;5000947;28;20037;-55
2023/12/29 12:19:11;;;;;;;13.95;11.10;;;20.90;99.90;;;;;;5012001;28;20534;-53
2023/12/29 12:21:40;;;;;;;14.55;11.80;;;21.00;99.90;;;;;;5012406;28;20021;-54
2023/12/29 12:24:07;;;;;;;15.95;11.30;;;21.00;99.90;;;;;;5012529;28;20466;-56
2023/12/29 12:26:34;;;;;;;16.20;12.10;;;21.00;99.90;;;;;;5012554;28;20037;-54
2023/12/29 12:29:00;;;;;;;16.27;10.70;;;21.10;99.90;;;;;;5012252;28;20310;-54
2023/12/29 12:31:26;;;;;;;14.13;11.10;;;21.00;99.90;;;;;;5012280;28;20022;-53
2023/12/29 12:34:02;;;;;;;16.02;11.27;;;21.10;99.90;;;;;;5012162;28;20029;-54
2023/12/29 12:36:28;;;;;;;15.10;10.63;;;21.10;99.90;;;;;;5012094;28;20386;-53
2023/12/29 12:38:56;;;;;;;13.93;10.73;;;21.10;99.90;;;;;;5011967;28;20561;-53
2023/12/29 12:41:22;;;;;;;15.85;10.60;;;21.10;99.90;;;;;;5012125;28;20032;-53
2023/12/29 12:44:11;;;;;;;14.57;10.30;;;21.20;99.90;;;;;;5012076;28;20072;-52